createdAt,value
2018-08-22T00:00:45.023Z,80.20
2018-08-22T00:05:50.181Z,81.40
2018-08-22T00:11:02.507Z,81.00
2018-08-22T00:27:16.496Z,82.00
2018-08-22T00:32:23.164Z,82.60
2018-08-22T00:37:30.762Z,83.40
2018-08-22T00:42:38.799Z,83.70
2018-08-22T00:47:44.143Z,83.90
2018-08-22T00:52:50.037Z,84.10
2018-08-22T00:57:57.084Z,84.50
2018-08-22T01:03:04.378Z,84.00
2018-08-22T01:29:27.277Z,83.90
2018-08-22T01:34:33.065Z,84.00
2018-08-22T01:40:10.785Z,83.90
2018-08-22T01:45:23.623Z,83.50
2018-08-22T02:03:01.648Z,82.80
2018-08-22T02:08:07.011Z,82.00
2018-08-22T02:13:15.240Z,81.80
2018-08-22T02:18:28.081Z,81.30
2018-08-22T02:23:33.649Z,80.70
2018-08-22T02:33:38.541Z,79.90
2018-08-22T02:38:55.068Z,79.20
2018-08-22T03:12:31.575Z,79.00
2018-08-22T03:17:47.887Z,78.50
2018-08-22T03:22:52.954Z,78.00
2018-08-22T03:27:59.447Z,77.50
2018-08-22T03:33:05.422Z,77.00
2018-08-22T03:38:10.437Z,77.00
2018-08-22T03:43:21.681Z,76.90
2018-08-22T03:53:42.308Z,77.20
2018-08-22T03:58:46.938Z,77.40
2018-08-22T04:03:51.602Z,77.60
2018-08-22T04:08:56.249Z,77.70
2018-08-22T04:14:01.790Z,77.70
2018-08-22T04:19:06.851Z,77.40
2018-08-22T04:24:11.340Z,77.30
2018-08-22T04:29:16.486Z,77.00
2018-08-22T04:34:22.341Z,77.10
2018-08-22T04:39:26.867Z,76.30
2018-08-22T04:44:31.293Z,77.00
2018-08-22T04:49:35.705Z,76.70
2018-08-22T04:54:40.167Z,76.40
2018-08-22T04:59:44.579Z,76.30
2018-08-22T05:04:49.056Z,76.00
2018-08-22T05:09:53.524Z,75.90
2018-08-22T05:14:58.110Z,75.70
2018-08-22T05:20:03.197Z,75.60
2018-08-22T05:25:07.642Z,75.60
2018-08-22T05:30:12.080Z,75.30
2018-08-22T05:35:16.518Z,75.20
2018-08-22T05:40:21.651Z,74.60
2018-08-22T05:45:26.217Z,74.00
2018-08-22T05:50:30.677Z,74.40
2018-08-22T05:55:35.406Z,72.90
2018-08-22T06:00:40.367Z,72.10
2018-08-22T06:05:45.071Z,71.30
2018-08-22T06:10:49.899Z,70.30
2018-08-22T06:15:54.312Z,70.30
2018-08-22T06:20:59.149Z,71.00
2018-08-22T06:26:04.329Z,70.40
2018-08-22T06:31:08.894Z,70.30
2018-08-22T06:36:13.491Z,69.70
2018-08-22T06:41:18.226Z,69.50
2018-08-22T06:46:22.969Z,69.50
2018-08-22T06:51:27.714Z,69.00
2018-08-22T06:56:32.379Z,68.10
2018-08-22T07:01:37.106Z,67.60
2018-08-22T07:06:42.588Z,65.80
2018-08-22T07:11:47.121Z,65.40
2018-08-22T07:16:51.679Z,65.20
2018-08-22T07:21:56.026Z,64.30
2018-08-22T07:27:08.649Z,63.80
2018-08-22T07:32:13.401Z,62.60
2018-08-22T07:37:18.519Z,61.90
2018-08-22T07:42:23.112Z,60.50
2018-08-22T07:47:27.733Z,60.30
2018-08-22T07:52:32.394Z,59.90
2018-08-22T07:57:37.943Z,59.50
2018-08-22T08:02:42.727Z,59.80
2018-08-22T08:07:48.124Z,58.00
2018-08-22T08:12:53.235Z,57.90
2018-08-22T08:17:58.801Z,57.10
2018-08-22T08:23:03.584Z,56.30
2018-08-22T08:28:08.129Z,55.70
2018-08-22T08:33:13.637Z,54.90
2018-08-22T08:38:18.280Z,53.60
2018-08-22T08:43:23.354Z,53.30
2018-08-22T08:48:28.530Z,51.80
2018-08-22T08:53:33.565Z,51.20
2018-08-22T08:58:38.884Z,50.40
2018-08-22T09:03:44.198Z,49.10
2018-08-22T09:08:49.418Z,48.90
2018-08-22T09:13:57.756Z,47.90
2018-08-22T09:19:03.084Z,47.10
2018-08-22T09:24:08.252Z,47.10
2018-08-22T09:29:13.556Z,45.30
2018-08-22T09:34:18.919Z,44.10
2018-08-22T09:39:24.061Z,42.80
2018-08-22T09:44:29.178Z,42.20
2018-08-22T09:49:33.815Z,41.40
2018-08-22T09:55:09.121Z,41.00
2018-08-22T10:00:19.021Z,40.70
2018-08-22T10:05:23.852Z,40.00
2018-08-22T10:10:28.419Z,38.90
2018-08-22T10:15:34.570Z,37.80
2018-08-22T10:20:39.434Z,37.20
2018-08-22T10:25:44.180Z,37.50
2018-08-22T10:30:48.914Z,37.80
2018-08-22T10:35:53.708Z,36.70
2018-08-22T10:40:58.435Z,36.80
2018-08-22T10:46:03.853Z,37.20
2018-08-22T10:51:09.326Z,36.40
2018-08-22T10:56:14.155Z,36.70
2018-08-22T11:01:18.619Z,35.90
2018-08-22T11:06:23.624Z,34.50
2018-08-22T11:11:28.190Z,34.40
2018-08-22T11:16:32.599Z,34.10
2018-08-22T11:21:48.341Z,33.90
2018-08-22T11:27:03.665Z,33.20
2018-08-22T11:32:19.121Z,33.90
2018-08-22T11:37:23.980Z,31.60
2018-08-22T11:42:28.788Z,30.80
2018-08-22T11:47:33.118Z,30.20
2018-08-22T11:52:37.700Z,28.30
2018-08-22T11:57:42.088Z,27.40
2018-08-22T12:02:46.786Z,27.30
2018-08-22T12:07:51.292Z,27.60
2018-08-22T12:12:56.127Z,28.10
2018-08-22T12:18:01.287Z,27.00
2018-08-22T12:23:07.186Z,24.50
2018-08-22T12:28:11.705Z,25.10
2018-08-22T12:33:16.179Z,24.80
2018-08-22T12:38:20.697Z,23.40
2018-08-22T12:43:25.058Z,21.50
2018-08-22T12:48:29.708Z,20.50
2018-08-22T12:53:34.204Z,21.00
2018-08-22T12:58:38.602Z,21.00
2018-08-22T13:03:43.041Z,20.40
2018-08-22T13:08:47.461Z,18.90
2018-08-22T13:13:51.799Z,18.00
2018-08-22T13:18:56.341Z,17.20
2018-08-22T13:24:00.729Z,17.70
2018-08-22T13:29:05.243Z,19.10
2018-08-22T13:34:09.687Z,18.80
2018-08-22T13:39:14.130Z,18.70
2018-08-22T13:44:18.604Z,18.70
2018-08-22T13:49:23.087Z,21.50
2018-08-22T13:54:27.471Z,23.80
2018-08-22T13:59:32.540Z,25.40
2018-08-22T14:04:37.048Z,24.10
2018-08-22T14:09:41.553Z,25.00
2018-08-22T14:14:46.087Z,23.40
2018-08-22T14:19:51.327Z,19.60
2018-08-22T14:24:55.751Z,18.90
2018-08-22T14:30:00.179Z,17.30
2018-08-22T14:35:04.621Z,19.70
2018-08-22T14:40:09.021Z,17.90
2018-08-22T14:45:13.679Z,19.10
2018-08-22T14:50:18.287Z,18.90
2018-08-22T14:55:22.836Z,18.70
2018-08-22T15:00:27.298Z,18.80
2018-08-22T15:05:31.726Z,20.80
2018-08-22T15:10:36.416Z,21.20
2018-08-22T15:15:40.939Z,21.10
2018-08-22T15:20:45.316Z,22.00
2018-08-22T15:25:49.755Z,21.20
2018-08-22T15:30:54.342Z,23.80
2018-08-22T15:35:58.772Z,27.90
2018-08-22T15:41:03.311Z,26.30
2018-08-22T15:46:08.383Z,21.70
2018-08-22T15:51:12.829Z,18.20
2018-08-22T15:56:17.409Z,16.90
2018-08-22T16:01:21.929Z,19.40
2018-08-22T16:06:26.398Z,20.50
2018-08-22T16:11:31.182Z,22.00
2018-08-22T16:16:35.564Z,20.20
2018-08-22T16:21:40.024Z,20.60
2018-08-22T16:26:44.559Z,21.70
2018-08-22T16:31:48.923Z,24.60
2018-08-22T16:36:53.284Z,25.50
2018-08-22T16:41:57.611Z,23.80
2018-08-22T16:47:02.069Z,21.60
2018-08-22T16:52:06.604Z,20.20
2018-08-22T16:57:11.468Z,20.30
2018-08-22T17:02:16.088Z,21.80
2018-08-22T17:07:20.527Z,22.80
2018-08-22T17:12:24.892Z,24.60
2018-08-22T17:17:29.359Z,23.50
2018-08-22T17:22:33.947Z,22.90
2018-08-22T17:27:38.482Z,23.50
2018-08-22T17:32:43.017Z,26.60
2018-08-22T17:37:58.968Z,28.70
2018-08-22T17:43:03.713Z,29.90
2018-08-22T17:48:08.503Z,32.50
2018-08-22T17:53:13.068Z,33.90
2018-08-22T17:58:17.513Z,35.00
2018-08-22T18:03:21.972Z,36.30
2018-08-22T18:09:29.807Z,38.00
2018-08-22T18:14:34.193Z,39.40
2018-08-22T18:19:39.579Z,40.60
2018-08-22T18:24:49.439Z,41.60
2018-08-22T18:29:53.913Z,42.60
2018-08-22T18:35:04.381Z,43.60
2018-08-22T18:40:23.785Z,44.50
2018-08-22T18:45:28.613Z,44.90
2018-08-22T18:50:33.041Z,45.70
2018-08-22T18:55:38.483Z,46.30
2018-08-22T19:00:42.892Z,47.00
2018-08-22T19:05:47.655Z,48.40
2018-08-22T19:10:55.108Z,48.60
2018-08-22T19:16:05.142Z,49.30
2018-08-22T19:21:11.536Z,50.10
2018-08-22T19:26:17.487Z,51.00
2018-08-22T19:31:29.124Z,51.60
2018-08-22T19:36:49.742Z,53.00
2018-08-22T19:41:55.416Z,53.10
2018-08-22T19:47:01.085Z,53.80
2018-08-22T19:52:07.577Z,54.70
2018-08-22T19:57:14.377Z,55.50
2018-08-22T20:02:25.573Z,56.60
2018-08-22T20:07:59.717Z,56.60
2018-08-22T20:13:08.129Z,56.60
2018-08-22T20:18:14.946Z,56.90
2018-08-22T20:44:43.003Z,58.00
2018-08-22T20:49:55.125Z,58.10
2018-08-22T20:55:09.503Z,58.10
2018-08-22T21:00:22.547Z,58.60
2018-08-22T21:05:29.144Z,59.10
2018-08-22T21:10:42.399Z,59.50
2018-08-22T21:15:52.057Z,59.80
2018-08-22T21:21:00.275Z,60.10
2018-08-22T21:26:07.007Z,60.80
2018-08-22T21:31:12.857Z,61.60
2018-08-22T21:36:18.425Z,62.20
2018-08-22T21:41:27.168Z,62.80
2018-08-22T21:46:33.250Z,63.10
2018-08-22T21:51:40.130Z,63.60
2018-08-22T22:03:52.535Z,64.90
2018-08-22T22:08:57.899Z,65.60
2018-08-22T22:14:15.347Z,66.40
2018-08-22T22:19:20.812Z,66.80
2018-08-22T22:24:27.507Z,67.50
2018-08-22T22:29:34.757Z,68.00
2018-08-22T22:34:42.228Z,68.80
2018-08-22T22:45:17.207Z,69.50
2018-08-22T22:50:28.530Z,70.60
2018-08-22T22:55:34.508Z,71.40
2018-08-22T23:00:41.612Z,72.10
2018-08-22T23:05:47.183Z,72.80
2018-08-22T23:10:57.157Z,73.60
2018-08-22T23:16:02.928Z,74.00
2018-08-22T23:21:10.545Z,74.20
2018-08-22T23:26:23.796Z,74.40
2018-08-22T23:31:32.337Z,74.70
2018-08-22T23:36:48.457Z,75.00
2018-08-22T23:41:54.521Z,75.50
2018-08-22T23:47:00.303Z,75.80
2018-08-22T23:57:43.185Z,77.70
